createdAt,value
2022-09-28T00:00:39.112Z,17.95
2022-09-28T00:03:07.241Z,17.93
2022-09-28T00:05:35.519Z,17.93
2022-09-28T00:08:03.633Z,17.78
2022-09-28T00:10:33.085Z,17.88
2022-09-28T00:13:01.895Z,17.91
2022-09-28T00:15:29.885Z,17.90
2022-09-28T00:17:57.947Z,17.79
2022-09-28T00:20:26.107Z,17.87
2022-09-28T00:22:54.214Z,17.95
2022-09-28T00:25:22.227Z,17.98
2022-09-28T00:27:52.573Z,17.96
2022-09-28T00:30:20.835Z,17.90
2022-09-28T00:32:48.852Z,17.98
2022-09-28T00:35:16.947Z,17.76
2022-09-28T00:37:45.181Z,17.98
2022-09-28T00:40:13.144Z,17.85
2022-09-28T00:42:42.935Z,17.71
2022-09-28T00:45:12.489Z,17.84
2022-09-28T00:47:46.659Z,17.83
2022-09-28T00:50:19.266Z,17.80
2022-09-28T00:52:49.755Z,17.75
2022-09-28T00:55:21.717Z,17.81
2022-09-28T00:57:51.687Z,17.81
2022-09-28T01:00:22.004Z,17.76
2022-09-28T01:02:50.204Z,17.78
2022-09-28T01:05:18.314Z,17.78
2022-09-28T01:07:46.611Z,17.75
2022-09-28T01:10:14.641Z,17.77
2022-09-28T01:12:42.691Z,17.81
2022-09-28T01:15:11.074Z,17.77
2022-09-28T01:17:49.308Z,17.79
2022-09-28T01:20:29.169Z,17.81
2022-09-28T01:23:13.431Z,17.76
2022-09-28T01:25:43.650Z,17.75
2022-09-28T01:28:14.406Z,17.72
2022-09-28T01:30:44.791Z,17.72
2022-09-28T01:33:14.129Z,17.70
2022-09-28T01:35:44.099Z,17.67
2022-09-28T01:38:14.746Z,17.67
2022-09-28T01:40:42.896Z,17.74
2022-09-28T01:43:12.256Z,17.72
2022-09-28T01:45:45.747Z,17.66
2022-09-28T01:48:15.188Z,17.77
2022-09-28T01:50:43.545Z,17.75
2022-09-28T01:53:13.682Z,17.72
2022-09-28T01:55:43.509Z,17.76
2022-09-28T01:58:13.321Z,17.75
2022-09-28T02:00:44.194Z,17.71
2022-09-28T02:03:13.719Z,17.70
2022-09-28T02:05:47.440Z,17.60
2022-09-28T02:08:17.719Z,17.67
2022-09-28T02:10:47.766Z,17.69
2022-09-28T02:13:17.667Z,17.63
2022-09-28T02:15:51.899Z,17.64
2022-09-28T02:18:20.505Z,17.70
2022-09-28T02:20:52.653Z,17.71
2022-09-28T02:23:21.268Z,17.62
2022-09-28T02:25:52.234Z,17.68
2022-09-28T02:28:21.670Z,17.67
2022-09-28T02:30:52.756Z,17.66
2022-09-28T02:33:23.033Z,17.65
2022-09-28T02:35:51.175Z,17.63
2022-09-28T02:38:20.951Z,17.65
2022-09-28T02:40:56.183Z,17.58
2022-09-28T02:43:25.264Z,17.56
2022-09-28T02:46:00.682Z,17.43
2022-09-28T02:49:00.225Z,17.52
2022-09-28T02:51:39.395Z,17.33
2022-09-28T02:54:33.956Z,17.40
2022-09-28T02:57:13.388Z,17.32
2022-09-28T02:59:46.255Z,17.28
2022-09-28T03:02:21.318Z,17.23
2022-09-28T03:04:53.703Z,17.25
2022-09-28T03:07:29.075Z,17.21
2022-09-28T03:10:00.444Z,17.11
2022-09-28T03:12:29.397Z,17.22
2022-09-28T03:15:08.871Z,17.23
2022-09-28T03:17:38.541Z,17.23
2022-09-28T03:20:07.675Z,17.20
2022-09-28T03:22:36.048Z,17.25
2022-09-28T03:25:04.067Z,17.29
2022-09-28T03:27:32.201Z,17.31
2022-09-28T03:30:00.460Z,17.31
2022-09-28T03:32:28.557Z,17.35
2022-09-28T03:34:58.027Z,17.37
2022-09-28T03:37:27.755Z,17.39
2022-09-28T03:39:55.920Z,17.30
2022-09-28T03:42:23.979Z,17.37
2022-09-28T03:44:52.597Z,17.48
2022-09-28T03:47:21.443Z,17.50
2022-09-28T03:49:49.419Z,17.38
2022-09-28T03:52:20.131Z,17.45
2022-09-28T03:54:49.372Z,17.47
2022-09-28T03:57:17.634Z,17.45
2022-09-28T03:59:45.807Z,17.40
2022-09-28T04:02:13.920Z,17.46
2022-09-28T04:04:43.650Z,17.45
2022-09-28T04:07:12.799Z,17.42
2022-09-28T04:09:42.271Z,17.27
2022-09-28T04:12:10.746Z,17.37
2022-09-28T04:14:38.772Z,17.26
2022-09-28T04:17:09.192Z,17.43
2022-09-28T04:19:37.849Z,17.42
2022-09-28T04:22:27.253Z,17.44
2022-09-28T04:24:56.660Z,17.42
2022-09-28T04:27:42.435Z,17.42
2022-09-28T04:30:12.726Z,17.39
2022-09-28T04:32:47.495Z,17.32
2022-09-28T04:35:15.740Z,17.37
2022-09-28T04:37:43.839Z,17.36
2022-09-28T04:40:13.927Z,17.36
2022-09-28T04:42:42.006Z,17.37
2022-09-28T04:45:11.128Z,17.35
2022-09-28T04:47:43.905Z,17.33
2022-09-28T04:50:30.631Z,17.28
2022-09-28T04:53:14.944Z,17.24
2022-09-28T04:55:44.648Z,17.28
2022-09-28T04:58:12.680Z,17.26
2022-09-28T05:00:40.722Z,17.32
2022-09-28T05:03:35.901Z,17.32
2022-09-28T05:06:17.487Z,17.31
2022-09-28T05:08:47.848Z,17.37
2022-09-28T05:11:19.887Z,17.34
2022-09-28T05:13:48.928Z,17.33
2022-09-28T05:16:18.147Z,17.26
2022-09-28T05:19:08.719Z,17.24
2022-09-28T05:21:36.969Z,17.18
2022-09-28T05:24:07.577Z,17.36
2022-09-28T05:26:41.055Z,17.27
2022-09-28T05:29:11.386Z,17.38
2022-09-28T05:32:05.157Z,17.39
2022-09-28T05:34:50.798Z,17.38
2022-09-28T05:37:25.416Z,17.38
2022-09-28T05:39:53.470Z,17.21
2022-09-28T05:42:22.962Z,17.32
2022-09-28T05:44:51.056Z,17.30
2022-09-28T05:47:19.223Z,17.37
2022-09-28T05:49:47.597Z,17.39
2022-09-28T05:52:15.983Z,17.42
2022-09-28T05:54:44.213Z,17.27
2022-09-28T05:57:12.473Z,17.38
2022-09-28T05:59:41.879Z,17.44
2022-09-28T06:02:11.389Z,17.34
2022-09-28T06:04:40.843Z,17.39
2022-09-28T06:07:08.937Z,17.37
2022-09-28T06:09:36.927Z,17.31
2022-09-28T06:12:32.208Z,17.14
2022-09-28T06:15:09.949Z,17.18
2022-09-28T06:17:38.009Z,17.02
2022-09-28T06:20:24.882Z,17.13
2022-09-28T06:23:09.949Z,16.96
2022-09-28T06:25:38.221Z,16.78
2022-09-28T06:28:08.589Z,16.92
2022-09-28T06:30:39.122Z,16.91
2022-09-28T06:33:11.892Z,16.88
2022-09-28T06:35:40.034Z,16.88
2022-09-28T06:38:08.130Z,16.88
2022-09-28T06:40:36.466Z,16.83
2022-09-28T06:43:09.830Z,16.91
2022-09-28T06:45:57.732Z,16.88
2022-09-28T06:48:45.141Z,16.78
2022-09-28T06:51:18.306Z,16.88
2022-09-28T06:54:02.128Z,16.86
2022-09-28T06:56:50.468Z,16.80
2022-09-28T06:59:22.388Z,16.70
2022-09-28T07:01:52.109Z,16.58
2022-09-28T07:04:38.971Z,16.45
2022-09-28T07:07:27.733Z,16.30
2022-09-28T07:10:16.347Z,16.25
2022-09-28T07:13:04.180Z,16.27
2022-09-28T07:15:36.559Z,16.33
2022-09-28T07:18:06.992Z,16.42
2022-09-28T07:20:46.467Z,16.48
2022-09-28T07:23:19.777Z,16.54
2022-09-28T07:26:12.328Z,16.48
2022-09-28T07:29:13.137Z,16.67
2022-09-28T07:32:16.635Z,16.74
2022-09-28T07:35:18.685Z,16.77
2022-09-28T07:37:50.376Z,17.04
2022-09-28T07:40:36.565Z,17.16
2022-09-28T07:43:06.300Z,17.14
2022-09-28T07:45:35.926Z,17.38
2022-09-28T07:48:04.449Z,17.45
2022-09-28T07:51:01.913Z,17.56
2022-09-28T07:53:40.763Z,17.70
2022-09-28T07:56:18.417Z,17.80
2022-09-28T07:58:55.861Z,17.85
2022-09-28T08:01:35.653Z,17.98
2022-09-28T08:04:06.444Z,18.01
2022-09-28T08:06:37.778Z,18.07
2022-09-28T08:09:07.447Z,18.02
2022-09-28T08:11:54.894Z,18.13
2022-09-28T08:14:41.425Z,18.14
2022-09-28T08:17:29.923Z,18.21
2022-09-28T08:20:17.973Z,18.20
2022-09-28T08:22:47.890Z,18.18
2022-09-28T08:25:16.364Z,18.00
2022-09-28T08:27:46.721Z,17.95
2022-09-28T08:30:16.638Z,18.27
2022-09-28T08:32:54.939Z,18.17
2022-09-28T08:35:42.188Z,18.28
2022-09-28T08:38:19.652Z,18.29
2022-09-28T08:41:23.386Z,18.33
2022-09-28T08:44:13.112Z,18.36
2022-09-28T08:47:03.927Z,18.50
2022-09-28T08:52:46.798Z,18.30
2022-09-28T08:55:31.257Z,18.31
2022-09-28T08:58:00.943Z,18.40
2022-09-28T09:00:34.482Z,18.42
2022-09-28T09:03:07.256Z,18.55
2022-09-28T09:05:52.279Z,18.51
2022-09-28T09:08:46.113Z,18.26
2022-09-28T09:11:22.255Z,18.36
2022-09-28T09:14:29.546Z,18.29
2022-09-28T09:17:09.236Z,18.38
2022-09-28T09:20:25.331Z,18.49
2022-09-28T09:23:07.214Z,18.48
2022-09-28T09:25:42.523Z,18.83
2022-09-28T09:28:32.922Z,18.98
2022-09-28T09:31:22.585Z,18.99
2022-09-28T09:34:25.142Z,19.03
2022-09-28T09:37:23.924Z,19.03
2022-09-28T09:40:23.759Z,19.02
2022-09-28T09:43:41.771Z,19.01
2022-09-28T09:46:38.915Z,19.19
2022-09-28T09:49:19.814Z,19.27
2022-09-28T09:59:35.623Z,19.72
2022-09-28T10:02:33.499Z,19.84
2022-09-28T10:05:41.770Z,19.97
2022-09-28T10:08:27.542Z,20.13
2022-09-28T10:11:06.861Z,20.12
2022-09-28T10:13:39.317Z,20.32
2022-09-28T10:16:22.327Z,20.21
2022-09-28T10:22:59.905Z,19.81
2022-09-28T10:28:59.046Z,19.26
2022-09-28T10:31:53.030Z,19.21
2022-09-28T10:34:31.178Z,19.02
2022-09-28T10:44:14.610Z,19.10
2022-09-28T10:46:57.937Z,18.94
2022-09-28T10:49:33.877Z,19.03
2022-09-28T10:52:52.480Z,19.02
2022-09-28T10:56:13.600Z,18.73
2022-09-28T10:59:39.025Z,19.07
2022-09-28T11:02:37.864Z,19.00
2022-09-28T11:05:28.075Z,18.98
2022-09-28T11:08:21.385Z,19.14
2022-09-28T11:18:42.075Z,19.46
2022-09-28T11:22:03.544Z,19.24
2022-09-28T11:48:25.976Z,18.95
2022-09-28T11:51:42.783Z,18.59
2022-09-28T11:57:48.582Z,18.60
2022-09-28T12:08:04.949Z,18.39
2022-09-28T12:11:05.295Z,18.21
2022-09-28T12:14:16.455Z,18.26
2022-09-28T12:17:05.840Z,18.16
2022-09-28T12:19:52.202Z,18.31
2022-09-28T12:26:59.918Z,18.58
2022-09-28T12:34:21.828Z,18.48
2022-09-28T12:46:12.659Z,18.97
2022-09-28T12:50:27.184Z,19.11
2022-09-28T12:52:43.847Z,19.19
2022-09-28T12:55:24.466Z,19.21
2022-09-28T13:06:32.518Z,19.05
2022-09-28T13:09:27.201Z,19.15
2022-09-28T13:12:21.438Z,18.95
2022-09-28T13:15:19.247Z,18.99
2022-09-28T13:18:09.536Z,18.72
2022-09-28T13:24:32.558Z,18.63
2022-09-28T13:27:08.047Z,18.55
2022-09-28T13:29:54.947Z,18.80
2022-09-28T13:32:42.411Z,18.85
2022-09-28T13:35:38.798Z,18.93
2022-09-28T13:38:51.155Z,18.96
2022-09-28T13:45:51.003Z,18.72
2022-09-28T13:49:26.421Z,18.88
2022-09-28T13:52:07.107Z,18.64
2022-09-28T13:55:00.222Z,18.69
2022-09-28T13:58:40.931Z,18.86
2022-09-28T14:02:07.490Z,18.94
2022-09-28T14:04:55.631Z,19.00
2022-09-28T14:07:57.598Z,19.15
2022-09-28T14:10:48.337Z,18.94
2022-09-28T14:14:11.859Z,19.16
2022-09-28T14:29:40.533Z,18.28
2022-09-28T14:35:59.257Z,18.44
2022-09-28T14:45:45.989Z,18.44
2022-09-28T14:48:23.058Z,18.50
2022-09-28T14:50:57.428Z,19.41
2022-09-28T14:53:44.708Z,19.69
2022-09-28T14:59:47.986Z,21.09
2022-09-28T15:02:38.894Z,21.52
2022-09-28T15:05:16.061Z,22.29
2022-09-28T15:08:02.523Z,22.35
2022-09-28T15:19:38.231Z,20.82
2022-09-28T15:22:34.455Z,20.32
2022-09-28T15:29:22.311Z,20.80
2022-09-28T15:35:23.368Z,20.67
2022-09-28T15:37:55.928Z,20.65
2022-09-28T15:40:34.286Z,20.40
2022-09-28T15:43:22.624Z,20.53
2022-09-28T15:46:08.409Z,21.01
2022-09-28T15:48:41.775Z,20.40
2022-09-28T15:51:12.003Z,20.86
2022-09-28T15:54:41.762Z,20.62
2022-09-28T15:57:50.982Z,20.07
2022-09-28T16:00:36.843Z,19.96
2022-09-28T16:03:26.030Z,19.86
2022-09-28T16:06:10.633Z,19.52
2022-09-28T16:08:43.289Z,19.51
2022-09-28T16:11:16.305Z,19.22
2022-09-28T16:13:55.588Z,19.54
2022-09-28T16:16:28.187Z,19.49
2022-09-28T16:18:59.730Z,19.44
2022-09-28T16:21:34.405Z,19.65
2022-09-28T16:24:03.430Z,19.58
2022-09-28T16:26:37.404Z,19.66
2022-09-28T16:29:27.689Z,19.32
2022-09-28T16:37:55.574Z,20.18
2022-09-28T17:02:45.714Z,19.02
2022-09-28T17:06:41.170Z,18.75
2022-09-28T17:09:11.343Z,18.23
2022-09-28T17:11:43.682Z,18.11
2022-09-28T17:14:23.596Z,18.49
2022-09-28T17:17:08.295Z,18.85
2022-09-28T17:19:41.842Z,18.69
2022-09-28T17:32:41.835Z,16.95
2022-09-28T17:36:41.272Z,16.57
2022-09-28T17:40:52.037Z,16.30
2022-09-28T17:48:17.652Z,15.84
2022-09-28T18:07:31.165Z,16.03
2022-09-28T18:16:35.115Z,16.11
2022-09-28T18:19:06.454Z,15.98
2022-09-28T18:21:40.516Z,16.00
2022-09-28T18:24:09.258Z,15.93
2022-09-28T18:26:38.732Z,15.85
2022-09-28T18:29:07.236Z,15.86
2022-09-28T18:31:38.109Z,16.08
2022-09-28T18:34:08.076Z,15.98
2022-09-28T18:36:36.359Z,16.06
2022-09-28T18:39:19.832Z,16.08
2022-09-28T18:41:48.300Z,15.97
2022-09-28T18:44:18.602Z,15.77
2022-09-28T18:46:47.152Z,16.04
2022-09-28T18:49:17.107Z,15.83
2022-09-28T18:51:45.449Z,16.10
2022-09-28T18:54:14.068Z,16.14
2022-09-28T18:56:42.332Z,16.17
2022-09-28T18:59:12.343Z,16.19
2022-09-28T19:01:44.121Z,16.09
2022-09-28T19:04:40.282Z,16.22
2022-09-28T19:07:10.237Z,16.15
2022-09-28T19:09:43.902Z,16.21
2022-09-28T19:12:19.265Z,16.34
2022-09-28T19:14:52.161Z,16.34
2022-09-28T19:20:27.988Z,16.48
2022-09-28T19:22:57.902Z,16.29
2022-09-28T19:25:29.342Z,16.53
2022-09-28T19:27:57.999Z,16.38
2022-09-28T19:30:27.721Z,16.44
2022-09-28T19:32:56.275Z,16.61
2022-09-28T19:35:24.569Z,16.30
2022-09-28T19:40:40.292Z,16.53
2022-09-28T19:43:08.717Z,16.45
2022-09-28T19:45:39.841Z,16.85
2022-09-28T19:48:08.489Z,16.70
2022-09-28T19:50:36.980Z,16.68
2022-09-28T19:53:09.140Z,16.94
2022-09-28T19:55:37.591Z,16.76
2022-09-28T19:58:06.749Z,16.67
2022-09-28T20:00:37.049Z,16.78
2022-09-28T20:03:05.452Z,16.63
2022-09-28T20:05:34.164Z,16.79
2022-09-28T20:10:40.818Z,16.74
2022-09-28T20:13:11.583Z,16.45
2022-09-28T20:15:40.055Z,16.44
2022-09-28T20:18:09.419Z,16.48
2022-09-28T20:20:38.033Z,16.46
2022-09-28T20:23:06.406Z,16.47
2022-09-28T20:25:34.921Z,16.47
2022-09-28T20:28:04.875Z,16.29
2022-09-28T20:30:33.397Z,16.22
2022-09-28T20:33:01.695Z,16.34
2022-09-28T20:35:33.315Z,16.34
2022-09-28T20:38:35.864Z,16.32
2022-09-28T20:41:04.372Z,16.40
2022-09-28T20:43:35.148Z,16.12
2022-09-28T20:46:03.989Z,16.42
2022-09-28T20:48:32.349Z,16.13
2022-09-28T20:51:03.434Z,16.29
2022-09-28T20:53:31.698Z,16.16
2022-09-28T20:56:01.059Z,16.41
2022-09-28T20:58:29.539Z,16.39
2022-09-28T21:01:08.028Z,16.22
2022-09-28T21:03:36.559Z,16.54
2022-09-28T21:06:07.665Z,16.47
2022-09-28T21:08:39.997Z,16.54
2022-09-28T21:11:08.550Z,16.35
2022-09-28T21:13:43.285Z,16.42
2022-09-28T21:16:13.891Z,16.18
2022-09-28T21:18:42.166Z,16.11
2022-09-28T21:21:12.422Z,16.32
2022-09-28T21:23:40.881Z,16.11
2022-09-28T21:26:09.913Z,16.10
2022-09-28T21:28:38.434Z,16.06
2022-09-28T21:31:07.727Z,16.22
2022-09-28T21:33:38.123Z,16.08
2022-09-28T21:36:08.358Z,16.09
2022-09-28T21:38:36.918Z,16.18
2022-09-28T21:41:05.192Z,16.21
2022-09-28T21:43:33.661Z,16.39
2022-09-28T21:46:02.333Z,16.36
2022-09-28T21:48:30.716Z,16.27
2022-09-28T21:51:01.429Z,16.33
2022-09-28T21:53:30.959Z,16.18
2022-09-28T21:56:00.167Z,16.28
2022-09-28T21:58:29.428Z,16.19
2022-09-28T22:01:02.413Z,16.04
2022-09-28T22:03:30.793Z,16.02
2022-09-28T22:06:02.892Z,16.17
2022-09-28T22:08:34.497Z,16.08
2022-09-28T22:11:18.213Z,15.90
2022-09-28T22:13:50.737Z,16.01
2022-09-28T22:16:23.015Z,15.96
2022-09-28T22:18:51.591Z,15.92
2022-09-28T22:21:23.618Z,15.60
2022-09-28T22:23:52.272Z,15.84
2022-09-28T22:26:23.458Z,15.59
2022-09-28T22:28:53.368Z,15.56
2022-09-28T22:31:23.426Z,15.68
2022-09-28T22:33:52.038Z,15.30
2022-09-28T22:36:24.680Z,15.47
2022-09-28T22:38:53.197Z,15.43
2022-09-28T22:41:23.487Z,15.50
2022-09-28T22:43:52.674Z,15.75
2022-09-28T22:46:22.417Z,15.71
2022-09-28T22:48:53.071Z,15.59
2022-09-28T22:51:25.862Z,15.82
2022-09-28T22:53:54.466Z,15.82
2022-09-28T22:56:27.669Z,15.58
2022-09-28T22:58:59.549Z,15.72
2022-09-28T23:01:31.614Z,15.77
2022-09-28T23:04:01.036Z,15.54
2022-09-28T23:06:33.316Z,15.68
2022-09-28T23:09:02.534Z,15.57
2022-09-28T23:11:30.882Z,15.71
2022-09-28T23:13:59.836Z,15.39
2022-09-28T23:16:28.366Z,15.59
2022-09-28T23:18:57.000Z,15.53
2022-09-28T23:21:27.478Z,15.41
2022-09-28T23:23:58.307Z,15.29
2022-09-28T23:26:27.596Z,15.33
2022-09-28T23:28:56.047Z,15.50
2022-09-28T23:31:25.299Z,15.41
2022-09-28T23:33:53.664Z,15.24
2022-09-28T23:36:22.634Z,15.40
2022-09-28T23:38:51.060Z,15.44
2022-09-28T23:41:21.047Z,15.36
2022-09-28T23:43:49.667Z,15.47
2022-09-28T23:46:21.075Z,15.14
2022-09-28T23:48:50.075Z,15.37
2022-09-28T23:51:18.459Z,15.29
2022-09-28T23:53:46.987Z,15.14
2022-09-28T23:56:15.625Z,15.12
2022-09-28T23:58:45.449Z,15.30
